createdAt,value
2017-07-23T00:00:07.464Z,20.33
2017-07-23T00:01:08.886Z,20.23
2017-07-23T00:02:10.305Z,20.16
2017-07-23T00:03:11.733Z,20.12
2017-07-23T00:04:13.160Z,20.34
2017-07-23T00:05:14.586Z,20.31
2017-07-23T00:06:16.011Z,20.35
2017-07-23T00:07:17.436Z,20.25
2017-07-23T00:08:18.858Z,20.18
2017-07-23T00:09:20.283Z,20.05
2017-07-23T00:10:21.706Z,20.00
2017-07-23T00:11:23.125Z,20.27
2017-07-23T00:12:24.546Z,20.39
2017-07-23T00:13:25.969Z,20.51
2017-07-23T00:14:27.396Z,20.31
2017-07-23T00:15:28.818Z,20.47
2017-07-23T00:16:30.243Z,20.41
2017-07-23T00:17:31.672Z,20.24
2017-07-23T00:18:33.095Z,20.23
2017-07-23T00:19:34.516Z,20.34
2017-07-23T00:20:35.945Z,20.33
2017-07-23T00:21:37.369Z,20.25
2017-07-23T00:22:38.792Z,20.30
2017-07-23T00:23:40.217Z,20.27
2017-07-23T00:24:41.661Z,20.15
2017-07-23T00:25:43.070Z,20.39
2017-07-23T00:26:44.505Z,20.42
2017-07-23T00:27:45.929Z,20.51
2017-07-23T00:28:47.350Z,20.34
2017-07-23T00:29:48.779Z,20.35
2017-07-23T00:30:50.201Z,20.38
2017-07-23T00:31:51.625Z,20.39
2017-07-23T00:32:53.054Z,20.33
2017-07-23T00:33:54.476Z,20.41
2017-07-23T00:34:55.898Z,20.42
2017-07-23T00:35:57.352Z,20.34
2017-07-23T00:36:58.774Z,20.46
2017-07-23T00:38:00.194Z,20.41
2017-07-23T00:39:01.614Z,20.35
2017-07-23T00:40:03.046Z,20.27
2017-07-23T00:41:04.474Z,20.31
2017-07-23T00:42:05.904Z,20.34
2017-07-23T00:43:07.330Z,20.35
2017-07-23T00:44:08.763Z,20.41
2017-07-23T00:45:10.186Z,20.34
2017-07-23T00:46:11.623Z,20.42
2017-07-23T00:47:13.048Z,20.47
2017-07-23T00:48:14.475Z,20.33
2017-07-23T00:49:15.898Z,20.53
2017-07-23T00:50:17.316Z,20.39
2017-07-23T00:51:18.741Z,20.20
2017-07-23T00:52:20.169Z,20.38
2017-07-23T00:53:21.597Z,20.23
2017-07-23T00:54:23.021Z,20.21
2017-07-23T00:55:24.449Z,20.30
2017-07-23T00:56:25.878Z,20.18
2017-07-23T00:57:27.299Z,20.24
2017-07-23T00:58:28.721Z,20.38
2017-07-23T00:59:30.149Z,20.35
2017-07-23T01:00:31.573Z,20.33
2017-07-23T01:01:33.004Z,20.46
2017-07-23T01:02:34.429Z,20.05
2017-07-23T01:03:35.857Z,19.84
2017-07-23T01:04:37.287Z,19.80
2017-07-23T01:05:38.713Z,19.75
2017-07-23T01:06:40.151Z,19.86
2017-07-23T01:07:41.582Z,19.84
2017-07-23T01:08:43.008Z,19.90
2017-07-23T01:09:44.437Z,19.88
2017-07-23T01:10:45.868Z,20.12
2017-07-23T01:11:47.292Z,20.06
2017-07-23T01:12:48.714Z,20.27
2017-07-23T01:13:50.139Z,20.25
2017-07-23T01:14:51.567Z,20.24
2017-07-23T01:15:52.990Z,20.21
2017-07-23T01:16:54.419Z,19.76
2017-07-23T01:17:55.841Z,19.60
2017-07-23T01:18:57.269Z,19.83
2017-07-23T01:19:58.696Z,19.86
2017-07-23T01:21:00.124Z,20.00
2017-07-23T01:22:01.545Z,20.05
2017-07-23T01:23:02.966Z,20.09
2017-07-23T01:24:04.386Z,20.02
2017-07-23T01:25:05.814Z,20.09
2017-07-23T01:26:07.244Z,20.09
2017-07-23T01:27:08.664Z,20.08
2017-07-23T01:28:10.085Z,20.09
2017-07-23T01:29:11.509Z,20.08
2017-07-23T01:30:12.932Z,19.98
2017-07-23T01:31:14.359Z,19.97
2017-07-23T01:32:15.779Z,19.79
2017-07-23T01:33:17.200Z,19.55
2017-07-23T01:34:18.630Z,19.75
2017-07-23T01:35:20.053Z,19.83
2017-07-23T01:36:21.478Z,19.95
2017-07-23T01:37:22.905Z,19.98
2017-07-23T01:38:24.338Z,20.06
2017-07-23T01:39:25.762Z,19.97
2017-07-23T01:40:27.184Z,19.98
2017-07-23T01:41:28.609Z,19.87
2017-07-23T01:42:30.035Z,19.95
2017-07-23T01:43:31.468Z,19.87
2017-07-23T01:44:32.885Z,19.98
2017-07-23T01:45:34.309Z,19.95
2017-07-23T01:46:35.737Z,19.93
2017-07-23T01:47:37.160Z,19.87
2017-07-23T01:48:38.597Z,19.58
2017-07-23T01:49:40.025Z,19.47
2017-07-23T01:50:41.447Z,19.51
2017-07-23T01:51:42.869Z,19.68
2017-07-23T01:52:44.296Z,19.70
2017-07-23T01:53:45.725Z,19.88
2017-07-23T01:54:47.144Z,19.70
2017-07-23T01:55:48.578Z,19.80
2017-07-23T01:56:49.997Z,19.60
2017-07-23T01:57:51.421Z,19.60
2017-07-23T01:58:52.851Z,19.70
2017-07-23T01:59:54.272Z,19.54
2017-07-23T02:00:55.694Z,19.58
2017-07-23T02:01:57.124Z,19.61
2017-07-23T02:02:58.550Z,19.57
2017-07-23T02:03:59.978Z,19.25
2017-07-23T02:05:01.412Z,19.29
2017-07-23T02:06:02.833Z,19.50
2017-07-23T02:07:04.265Z,19.46
2017-07-23T02:08:05.689Z,19.60
2017-07-23T02:09:07.117Z,19.61
2017-07-23T02:10:08.547Z,19.42
2017-07-23T02:11:09.970Z,19.39
2017-07-23T02:12:11.385Z,19.32
2017-07-23T02:13:12.827Z,19.35
2017-07-23T02:14:14.258Z,19.25
2017-07-23T02:15:15.678Z,19.40
2017-07-23T02:16:17.103Z,19.46
2017-07-23T02:17:18.524Z,19.31
2017-07-23T02:18:19.940Z,19.33
2017-07-23T02:19:21.372Z,19.38
2017-07-23T02:20:22.795Z,19.39
2017-07-23T02:21:24.220Z,19.40
2017-07-23T02:22:25.652Z,19.50
2017-07-23T02:23:27.075Z,19.53
2017-07-23T02:24:28.491Z,19.55
2017-07-23T02:25:29.922Z,19.29
2017-07-23T02:26:31.360Z,19.24
2017-07-23T02:27:32.778Z,19.08
2017-07-23T02:28:34.204Z,19.05
2017-07-23T02:29:35.625Z,18.91
2017-07-23T02:30:37.056Z,19.08
2017-07-23T02:31:38.490Z,19.13
2017-07-23T02:32:39.912Z,19.13
2017-07-23T02:33:41.339Z,19.11
2017-07-23T02:34:42.856Z,19.08
2017-07-23T02:35:44.281Z,18.98
2017-07-23T02:36:45.704Z,18.98
2017-07-23T02:37:47.129Z,19.17
2017-07-23T02:38:48.565Z,19.17
2017-07-23T02:39:49.990Z,19.14
2017-07-23T02:40:51.421Z,19.05
2017-07-23T02:41:52.842Z,19.08
2017-07-23T02:42:54.270Z,18.94
2017-07-23T02:43:55.694Z,19.02
2017-07-23T02:44:57.120Z,19.02
2017-07-23T02:45:58.542Z,19.11
2017-07-23T02:46:59.973Z,19.13
2017-07-23T02:48:01.410Z,18.97
2017-07-23T02:49:02.827Z,18.91
2017-07-23T02:50:04.256Z,18.94
2017-07-23T02:51:05.678Z,18.94
2017-07-23T02:52:07.104Z,18.98
2017-07-23T02:53:08.526Z,19.05
2017-07-23T02:54:09.953Z,18.97
2017-07-23T02:55:11.375Z,18.90
2017-07-23T02:56:12.798Z,18.59
2017-07-23T02:57:14.212Z,18.62
2017-07-23T02:58:15.635Z,18.59
2017-07-23T02:59:17.057Z,18.84
2017-07-23T03:00:18.479Z,19.10
2017-07-23T03:01:19.910Z,19.24
2017-07-23T03:02:21.340Z,19.38
2017-07-23T03:03:22.771Z,19.48
2017-07-23T03:04:24.199Z,19.31
2017-07-23T03:05:25.617Z,19.20
2017-07-23T03:06:27.042Z,19.24
2017-07-23T03:07:28.472Z,19.11
2017-07-23T03:08:29.895Z,19.20
2017-07-23T03:09:31.313Z,19.01
2017-07-23T03:10:32.734Z,18.79
2017-07-23T03:11:34.157Z,18.79
2017-07-23T03:12:35.577Z,18.95
2017-07-23T03:13:37.008Z,19.05
2017-07-23T03:14:38.430Z,19.18
2017-07-23T03:15:39.867Z,19.17
2017-07-23T03:16:41.292Z,19.18
2017-07-23T03:17:42.711Z,19.28
2017-07-23T03:18:44.132Z,19.38
2017-07-23T03:19:45.554Z,19.29
2017-07-23T03:20:46.981Z,19.43
2017-07-23T03:21:48.400Z,19.50
2017-07-23T03:22:49.819Z,19.51
2017-07-23T03:23:51.241Z,19.42
2017-07-23T03:24:52.692Z,19.40
2017-07-23T03:25:54.119Z,19.43
2017-07-23T03:26:55.546Z,19.42
2017-07-23T03:27:56.973Z,19.50
2017-07-23T03:28:58.403Z,19.38
2017-07-23T03:29:59.827Z,19.23
2017-07-23T03:31:01.359Z,19.28
2017-07-23T03:32:02.784Z,19.42
2017-07-23T03:33:04.209Z,19.32
2017-07-23T03:34:05.637Z,19.23
2017-07-23T03:35:07.061Z,19.29
2017-07-23T03:36:08.551Z,19.21
2017-07-23T03:37:09.972Z,19.20
2017-07-23T03:38:11.395Z,18.97
2017-07-23T03:39:12.819Z,19.08
2017-07-23T03:40:14.246Z,18.97
2017-07-23T03:41:15.671Z,19.05
2017-07-23T03:42:17.097Z,18.98
2017-07-23T03:43:18.523Z,18.97
2017-07-23T03:44:19.944Z,18.86
2017-07-23T03:45:21.371Z,19.11
2017-07-23T03:46:22.795Z,18.90
2017-07-23T03:47:24.218Z,18.92
2017-07-23T03:48:25.663Z,19.11
2017-07-23T03:49:27.088Z,18.98
2017-07-23T03:50:28.510Z,19.06
2017-07-23T03:51:29.937Z,18.99
2017-07-23T03:52:31.364Z,19.08
2017-07-23T03:53:32.781Z,19.01
2017-07-23T03:54:34.200Z,18.94
2017-07-23T03:55:35.624Z,18.95
2017-07-23T03:56:37.056Z,19.01
2017-07-23T03:57:38.485Z,19.08
2017-07-23T03:58:39.906Z,19.01
2017-07-23T03:59:41.328Z,19.05
2017-07-23T04:00:42.760Z,18.95
2017-07-23T04:01:44.184Z,19.13
2017-07-23T04:02:45.601Z,18.97
2017-07-23T04:03:47.026Z,19.01
2017-07-23T04:04:48.454Z,18.72
2017-07-23T04:05:49.874Z,18.80
2017-07-23T04:06:51.297Z,18.86
2017-07-23T04:07:52.716Z,18.84
2017-07-23T04:08:54.140Z,18.77
2017-07-23T04:09:55.559Z,18.92
2017-07-23T04:10:56.978Z,18.84
2017-07-23T04:11:58.402Z,18.90
2017-07-23T04:12:59.823Z,18.97
2017-07-23T04:14:01.248Z,18.82
2017-07-23T04:15:02.667Z,18.86
2017-07-23T04:16:04.089Z,18.87
2017-07-23T04:17:05.511Z,18.94
2017-07-23T04:18:06.937Z,18.80
2017-07-23T04:19:08.353Z,18.77
2017-07-23T04:20:09.783Z,18.80
2017-07-23T04:21:11.206Z,18.68
2017-07-23T04:22:12.633Z,18.72
2017-07-23T04:23:14.057Z,18.79
2017-07-23T04:24:15.483Z,18.68
2017-07-23T04:25:16.908Z,18.65
2017-07-23T04:26:18.335Z,18.50
2017-07-23T04:27:19.758Z,18.50
2017-07-23T04:28:21.188Z,18.47
2017-07-23T04:29:22.614Z,18.49
2017-07-23T04:30:24.046Z,18.62
2017-07-23T04:31:25.467Z,18.64
2017-07-23T04:32:26.939Z,18.65
2017-07-23T04:33:28.366Z,18.61
2017-07-23T04:34:29.800Z,18.50
2017-07-23T04:35:31.220Z,18.49
2017-07-23T04:36:32.646Z,18.47
2017-07-23T04:37:34.068Z,18.55
2017-07-23T04:38:35.496Z,18.65
2017-07-23T04:39:36.921Z,18.79
2017-07-23T04:40:38.350Z,18.77
2017-07-23T04:41:39.785Z,18.65
2017-07-23T04:42:41.210Z,18.65
2017-07-23T04:43:42.638Z,18.68
2017-07-23T04:44:44.070Z,18.65
2017-07-23T04:45:45.502Z,18.58
2017-07-23T04:46:46.929Z,18.57
2017-07-23T04:47:48.356Z,18.65
2017-07-23T04:48:49.784Z,18.64
2017-07-23T04:49:51.204Z,18.77
2017-07-23T04:50:52.639Z,18.64
2017-07-23T04:51:54.072Z,18.61
2017-07-23T04:52:55.502Z,18.65
2017-07-23T04:53:56.930Z,18.65
2017-07-23T04:54:58.355Z,18.84
2017-07-23T04:55:59.793Z,18.86
2017-07-23T04:57:01.216Z,18.77
2017-07-23T04:58:02.644Z,18.72
2017-07-23T04:59:04.071Z,18.76
2017-07-23T05:00:05.502Z,18.83
2017-07-23T05:01:06.932Z,18.79
2017-07-23T05:02:08.365Z,18.74
2017-07-23T05:03:09.788Z,18.57
2017-07-23T05:04:11.218Z,18.70
2017-07-23T05:05:12.640Z,18.62
2017-07-23T05:06:14.070Z,18.57
2017-07-23T05:07:15.502Z,18.62
2017-07-23T05:08:16.931Z,18.72
2017-07-23T05:09:18.354Z,18.70
2017-07-23T05:10:19.784Z,18.73
2017-07-23T05:11:21.211Z,18.72
2017-07-23T05:12:22.636Z,18.82
2017-07-23T05:13:24.063Z,18.86
2017-07-23T05:14:25.488Z,18.94
2017-07-23T05:15:26.909Z,19.05
2017-07-23T05:16:28.340Z,18.82
2017-07-23T05:17:29.762Z,18.82
2017-07-23T05:18:31.189Z,18.61
2017-07-23T05:19:32.621Z,18.90
2017-07-23T05:20:34.047Z,18.90
2017-07-23T05:21:35.470Z,18.70
2017-07-23T05:22:36.898Z,18.74
2017-07-23T05:23:38.328Z,18.73
2017-07-23T05:24:39.753Z,18.76
2017-07-23T05:25:41.177Z,18.57
2017-07-23T05:26:42.608Z,18.61
2017-07-23T05:27:44.032Z,18.57
2017-07-23T05:28:45.464Z,18.44
2017-07-23T05:29:46.885Z,18.54
2017-07-23T05:30:48.324Z,18.52
2017-07-23T05:31:49.744Z,18.61
2017-07-23T05:32:51.176Z,18.50
2017-07-23T05:33:52.721Z,18.61
2017-07-23T05:34:54.145Z,18.52
2017-07-23T05:35:55.579Z,18.43
2017-07-23T05:36:57.009Z,18.36
2017-07-23T05:37:58.438Z,18.39
2017-07-23T05:38:59.863Z,18.34
2017-07-23T05:40:01.297Z,18.50
2017-07-23T05:41:02.722Z,18.39
2017-07-23T05:42:04.145Z,18.62
2017-07-23T05:43:05.565Z,18.50
2017-07-23T05:44:07.000Z,18.40
2017-07-23T05:45:08.426Z,18.34
2017-07-23T05:46:09.853Z,18.39
2017-07-23T05:47:11.282Z,18.44
2017-07-23T05:48:12.712Z,18.37
2017-07-23T05:49:14.152Z,18.44
2017-07-23T05:50:15.570Z,18.44
2017-07-23T05:51:17.001Z,18.24
2017-07-23T05:52:18.421Z,18.28
2017-07-23T05:53:19.846Z,18.33
2017-07-23T05:54:21.278Z,18.40
2017-07-23T05:55:22.706Z,18.43
2017-07-23T05:56:24.130Z,18.33
2017-07-23T05:57:25.557Z,18.34
2017-07-23T05:58:26.987Z,18.31
2017-07-23T05:59:28.421Z,18.24
2017-07-23T06:00:29.842Z,18.18
2017-07-23T06:01:31.268Z,18.10
2017-07-23T06:02:32.690Z,18.27
2017-07-23T06:03:34.118Z,18.07
2017-07-23T06:04:35.547Z,18.24
2017-07-23T06:05:36.981Z,18.36
2017-07-23T06:06:38.410Z,18.22
2017-07-23T06:07:39.840Z,18.04
2017-07-23T06:08:41.264Z,17.99
2017-07-23T06:09:42.686Z,18.09
2017-07-23T06:10:44.111Z,17.97
2017-07-23T06:11:45.539Z,18.04
2017-07-23T06:12:46.964Z,18.09
2017-07-23T06:13:48.390Z,18.17
2017-07-23T06:14:49.820Z,18.17
2017-07-23T06:15:51.248Z,18.17
2017-07-23T06:16:52.683Z,18.12
2017-07-23T06:17:54.113Z,18.10
2017-07-23T06:18:55.534Z,17.99
2017-07-23T06:19:56.958Z,17.95
2017-07-23T06:20:58.385Z,17.89
2017-07-23T06:21:59.812Z,17.97
2017-07-23T06:23:01.233Z,18.04
2017-07-23T06:24:02.659Z,18.04
2017-07-23T06:25:04.080Z,17.99
2017-07-23T06:26:05.508Z,17.85
2017-07-23T06:27:06.937Z,18.06
2017-07-23T06:28:08.375Z,17.99
2017-07-23T06:29:09.798Z,17.95
2017-07-23T06:30:11.229Z,17.74
2017-07-23T06:31:12.653Z,17.78
2017-07-23T06:32:14.079Z,17.95
2017-07-23T06:33:15.508Z,17.88
2017-07-23T06:34:16.935Z,17.92
2017-07-23T06:35:18.369Z,17.88
2017-07-23T06:36:19.798Z,17.88
2017-07-23T06:37:21.213Z,17.99
2017-07-23T06:38:22.654Z,18.03
2017-07-23T06:39:24.077Z,17.91
2017-07-23T06:40:25.512Z,17.89
2017-07-23T06:41:26.939Z,17.89
2017-07-23T06:42:28.356Z,17.95
2017-07-23T06:43:29.791Z,17.95
2017-07-23T06:44:31.221Z,17.92
2017-07-23T06:45:32.648Z,17.81
2017-07-23T06:46:34.072Z,18.04
2017-07-23T06:47:35.501Z,18.06
2017-07-23T06:48:36.929Z,17.99
2017-07-23T06:49:38.358Z,17.87
2017-07-23T06:50:39.791Z,17.91
2017-07-23T06:51:41.218Z,18.02
2017-07-23T06:52:42.650Z,17.92
2017-07-23T06:53:44.076Z,17.99
2017-07-23T06:54:45.511Z,17.95
2017-07-23T06:55:46.953Z,18.00
2017-07-23T06:56:48.379Z,18.17
2017-07-23T06:57:49.807Z,18.04
2017-07-23T06:58:51.230Z,17.94
2017-07-23T06:59:52.666Z,17.89
2017-07-23T07:00:54.088Z,18.02
2017-07-23T07:01:55.515Z,18.18
2017-07-23T07:02:56.950Z,18.21
2017-07-23T07:03:58.377Z,18.21
2017-07-23T07:04:59.800Z,18.17
2017-07-23T07:06:01.225Z,18.13
2017-07-23T07:07:02.651Z,18.33
2017-07-23T07:08:04.081Z,18.46
2017-07-23T07:09:05.519Z,18.54
2017-07-23T07:10:06.944Z,18.67
2017-07-23T07:11:08.376Z,18.86
2017-07-23T07:12:09.800Z,18.92
2017-07-23T07:13:11.230Z,18.98
2017-07-23T07:14:12.659Z,18.87
2017-07-23T07:15:14.094Z,18.68
2017-07-23T07:16:15.527Z,18.86
2017-07-23T07:17:16.951Z,18.82
2017-07-23T07:18:18.390Z,18.98
2017-07-23T07:19:19.820Z,19.17
2017-07-23T07:20:21.240Z,19.11
2017-07-23T07:21:22.667Z,19.10
2017-07-23T07:22:24.103Z,19.15
2017-07-23T07:23:25.534Z,19.11
2017-07-23T07:24:27.818Z,19.28
2017-07-23T07:25:29.247Z,19.20
2017-07-23T07:26:30.680Z,19.42
2017-07-23T07:27:32.111Z,19.42
2017-07-23T07:28:33.532Z,19.58
2017-07-23T07:29:34.959Z,19.69
2017-07-23T07:30:36.396Z,19.63
2017-07-23T07:31:37.823Z,19.87
2017-07-23T07:32:39.249Z,19.73
2017-07-23T07:33:40.680Z,19.63
2017-07-23T07:34:42.103Z,19.60
2017-07-23T07:35:43.534Z,19.50
2017-07-23T07:36:44.968Z,19.46
2017-07-23T07:37:46.408Z,19.48
2017-07-23T07:38:47.834Z,19.53
2017-07-23T07:39:49.269Z,19.54
2017-07-23T07:40:50.760Z,19.28
2017-07-23T07:41:52.183Z,19.25
2017-07-23T07:42:53.619Z,19.29
2017-07-23T07:43:55.063Z,19.10
2017-07-23T07:44:56.489Z,18.99
2017-07-23T07:45:57.919Z,19.02
2017-07-23T07:46:59.346Z,19.08
2017-07-23T07:48:00.780Z,19.06
2017-07-23T07:49:02.211Z,18.94
2017-07-23T07:50:03.638Z,19.08
2017-07-23T07:51:05.073Z,18.99
2017-07-23T07:52:06.502Z,19.20
2017-07-23T07:53:07.931Z,19.14
2017-07-23T07:54:09.351Z,19.10
2017-07-23T07:55:10.783Z,19.01
2017-07-23T07:56:12.208Z,19.01
2017-07-23T07:57:13.632Z,19.06
2017-07-23T07:58:15.059Z,18.98
2017-07-23T07:59:16.489Z,19.11
2017-07-23T08:00:17.922Z,19.10
2017-07-23T08:01:19.343Z,19.23
2017-07-23T08:02:20.767Z,18.97
2017-07-23T08:03:22.203Z,19.06
2017-07-23T08:04:23.621Z,19.02
2017-07-23T08:05:25.064Z,19.08
2017-07-23T08:06:26.488Z,19.06
2017-07-23T08:07:27.922Z,19.06
2017-07-23T08:08:29.348Z,19.10
2017-07-23T08:09:30.780Z,19.20
2017-07-23T08:10:32.212Z,19.33
2017-07-23T08:11:33.642Z,19.55
2017-07-23T08:12:35.078Z,19.55
2017-07-23T08:13:36.508Z,19.83
2017-07-23T08:14:37.942Z,19.87
2017-07-23T08:15:39.375Z,19.84
2017-07-23T08:16:40.807Z,19.80
2017-07-23T08:17:42.234Z,20.09
2017-07-23T08:18:43.660Z,20.18
2017-07-23T08:19:45.101Z,19.84
2017-07-23T08:20:46.533Z,20.15
2017-07-23T08:21:47.956Z,19.98
2017-07-23T08:22:49.394Z,19.78
2017-07-23T08:23:50.805Z,19.47
2017-07-23T08:24:52.237Z,19.35
2017-07-23T08:25:53.668Z,19.14
2017-07-23T08:26:55.093Z,19.38
2017-07-23T08:27:56.526Z,19.29
2017-07-23T08:28:57.967Z,19.40
2017-07-23T08:29:59.394Z,19.54
2017-07-23T08:31:00.818Z,19.40
2017-07-23T08:32:02.253Z,19.42
2017-07-23T08:33:03.681Z,19.48
2017-07-23T08:34:05.850Z,19.47
2017-07-23T08:35:07.282Z,19.40
2017-07-23T08:36:08.717Z,19.51
2017-07-23T08:37:10.143Z,19.47
2017-07-23T08:38:11.572Z,19.42
2017-07-23T08:39:13.002Z,19.43
2017-07-23T08:40:14.512Z,19.48
2017-07-23T08:41:15.933Z,19.47
2017-07-23T08:42:17.365Z,19.66
2017-07-23T08:43:18.797Z,19.75
2017-07-23T08:44:20.234Z,19.65
2017-07-23T08:45:21.667Z,19.87
2017-07-23T08:46:23.156Z,20.10
2017-07-23T08:47:24.596Z,20.03
2017-07-23T08:48:26.035Z,20.12
2017-07-23T08:49:27.463Z,19.94
2017-07-23T08:50:28.891Z,20.16
2017-07-23T08:51:30.322Z,20.35
2017-07-23T08:52:31.749Z,20.56
2017-07-23T08:53:33.183Z,20.46
2017-07-23T08:54:34.612Z,20.54
2017-07-23T08:55:36.043Z,20.59
2017-07-23T08:56:37.475Z,20.64
2017-07-23T08:57:38.898Z,20.59
2017-07-23T08:58:40.326Z,20.68
2017-07-23T08:59:41.753Z,20.96
2017-07-23T09:00:43.180Z,20.80
2017-07-23T09:01:44.605Z,20.71
2017-07-23T09:02:46.033Z,20.74
2017-07-23T09:03:47.472Z,20.89
2017-07-23T09:04:48.905Z,21.09
2017-07-23T09:05:50.335Z,20.98
2017-07-23T09:06:51.764Z,20.86
2017-07-23T09:07:53.190Z,21.13
2017-07-23T09:08:54.619Z,20.98
2017-07-23T09:09:56.052Z,20.81
2017-07-23T09:10:57.481Z,20.72
2017-07-23T09:11:58.909Z,20.83
2017-07-23T09:13:00.356Z,20.80
2017-07-23T09:14:01.794Z,20.81
2017-07-23T09:15:03.229Z,20.43
2017-07-23T09:16:04.660Z,20.47
2017-07-23T09:17:06.090Z,20.71
2017-07-23T09:18:07.518Z,20.50
2017-07-23T09:19:08.953Z,20.54
2017-07-23T09:20:10.380Z,20.43
2017-07-23T09:21:11.815Z,20.46
2017-07-23T09:22:13.242Z,20.72
2017-07-23T09:23:14.671Z,20.64
2017-07-23T09:24:16.103Z,20.89
2017-07-23T09:25:17.534Z,20.86
2017-07-23T09:26:18.971Z,21.16
2017-07-23T09:27:20.411Z,21.11
2017-07-23T09:28:21.841Z,21.14
2017-07-23T09:29:23.272Z,21.27
2017-07-23T09:30:24.706Z,21.45
2017-07-23T09:31:26.140Z,21.41
2017-07-23T09:32:27.568Z,21.09
2017-07-23T09:33:29.004Z,20.90
2017-07-23T09:34:30.434Z,20.79
2017-07-23T09:35:31.875Z,20.71
2017-07-23T09:36:33.302Z,20.71
2017-07-23T09:37:34.739Z,20.74
2017-07-23T09:38:36.166Z,20.69
2017-07-23T09:39:37.594Z,20.74
2017-07-23T09:40:39.022Z,20.87
2017-07-23T09:41:40.448Z,20.96
2017-07-23T09:42:41.896Z,21.01
2017-07-23T09:43:43.328Z,21.05
2017-07-23T09:44:44.763Z,21.13
2017-07-23T09:45:46.190Z,21.23
2017-07-23T09:46:47.624Z,21.41
2017-07-23T09:47:49.053Z,21.46
2017-07-23T09:48:50.490Z,21.75
2017-07-23T09:49:51.926Z,21.67
2017-07-23T09:50:53.351Z,21.82
2017-07-23T09:51:54.786Z,21.60
2017-07-23T09:52:56.218Z,21.83
2017-07-23T09:53:57.660Z,22.46
2017-07-23T09:54:59.091Z,22.44
2017-07-23T09:56:00.532Z,22.31
2017-07-23T09:57:01.971Z,22.31
2017-07-23T09:58:03.421Z,22.22
2017-07-23T09:59:04.858Z,22.10
2017-07-23T10:00:06.294Z,21.91
2017-07-23T10:01:07.723Z,21.75
2017-07-23T10:02:09.157Z,21.67
2017-07-23T10:03:10.580Z,21.72
2017-07-23T10:04:12.026Z,21.79
2017-07-23T10:05:13.453Z,22.32
2017-07-23T10:06:14.896Z,22.52
2017-07-23T10:07:16.324Z,22.22
2017-07-23T10:08:17.768Z,22.16
2017-07-23T10:09:19.201Z,22.06
2017-07-23T10:10:20.635Z,21.90
2017-07-23T10:11:22.079Z,21.51
2017-07-23T10:12:23.510Z,21.16
2017-07-23T10:13:24.952Z,21.26
2017-07-23T10:14:26.377Z,20.74
2017-07-23T10:15:27.812Z,20.99
2017-07-23T10:16:29.275Z,21.01
2017-07-23T10:17:30.709Z,20.87
2017-07-23T10:18:32.155Z,20.68
2017-07-23T10:19:33.592Z,20.58
2017-07-23T10:20:35.026Z,20.64
2017-07-23T10:21:36.461Z,20.51
2017-07-23T10:22:37.895Z,20.65
2017-07-23T10:23:39.328Z,20.74
2017-07-23T10:24:40.759Z,20.83
2017-07-23T10:25:42.197Z,20.77
2017-07-23T10:26:43.639Z,20.79
2017-07-23T10:27:45.156Z,20.80
2017-07-23T10:28:46.611Z,21.16
2017-07-23T10:29:48.023Z,21.44
2017-07-23T10:30:49.453Z,21.32
2017-07-23T10:31:50.890Z,21.79
2017-07-23T10:32:52.334Z,21.98
2017-07-23T10:33:53.764Z,21.97
2017-07-23T10:34:55.254Z,22.27
2017-07-23T10:35:56.686Z,22.50
2017-07-23T10:36:58.119Z,22.35
2017-07-23T10:37:59.555Z,22.16
2017-07-23T10:39:01.110Z,22.17
2017-07-23T10:40:02.542Z,21.74
2017-07-23T10:41:03.980Z,21.51
2017-07-23T10:42:05.417Z,21.54
2017-07-23T10:43:06.853Z,21.60
2017-07-23T10:44:08.289Z,21.60
2017-07-23T10:45:09.725Z,21.81
2017-07-23T10:46:11.160Z,21.79
2017-07-23T10:47:12.677Z,21.82
2017-07-23T10:48:14.112Z,21.83
2017-07-23T10:49:15.539Z,21.83
2017-07-23T10:50:16.970Z,21.81
2017-07-23T10:51:18.401Z,21.63
2017-07-23T10:52:19.839Z,21.46
2017-07-23T10:53:21.294Z,21.39
2017-07-23T10:54:22.740Z,21.44
2017-07-23T10:55:24.169Z,21.44
2017-07-23T10:56:25.596Z,21.45
2017-07-23T10:57:27.032Z,21.30
2017-07-23T10:58:28.470Z,21.61
2017-07-23T10:59:29.905Z,21.74
2017-07-23T11:00:31.351Z,21.78
2017-07-23T11:01:32.789Z,21.90
2017-07-23T11:02:34.213Z,21.83
2017-07-23T11:03:35.645Z,21.87
2017-07-23T11:04:37.087Z,21.92
2017-07-23T11:05:38.536Z,22.02
2017-07-23T11:06:39.968Z,21.78
2017-07-23T11:07:41.403Z,21.91
2017-07-23T11:08:42.835Z,21.81
2017-07-23T11:09:44.262Z,21.78
2017-07-23T11:10:45.684Z,21.76
2017-07-23T11:11:47.137Z,21.95
2017-07-23T11:12:48.561Z,21.85
2017-07-23T11:13:49.992Z,21.81
2017-07-23T11:14:51.429Z,21.79
2017-07-23T11:15:52.862Z,21.83
2017-07-23T11:16:54.295Z,21.90
2017-07-23T11:17:55.722Z,22.12
2017-07-23T11:18:57.153Z,22.13
2017-07-23T11:19:58.582Z,22.28
2017-07-23T11:21:00.007Z,22.31
2017-07-23T11:22:01.452Z,22.13
2017-07-23T11:23:02.893Z,22.25
2017-07-23T11:24:04.329Z,22.02
2017-07-23T11:25:05.762Z,22.20
2017-07-23T11:26:07.195Z,22.22
2017-07-23T11:27:08.630Z,22.10
2017-07-23T11:28:10.059Z,21.95
2017-07-23T11:29:11.492Z,21.82
2017-07-23T11:30:12.920Z,21.82
2017-07-23T11:31:14.350Z,21.91
2017-07-23T11:32:15.787Z,22.04
2017-07-23T11:33:17.213Z,21.98
2017-07-23T11:34:18.648Z,21.71
2017-07-23T11:35:20.090Z,21.67
2017-07-23T11:36:21.519Z,21.83
2017-07-23T11:37:22.958Z,22.09
2017-07-23T11:38:24.378Z,21.98
2017-07-23T11:39:25.813Z,22.07
2017-07-23T11:40:27.243Z,22.01
2017-07-23T11:41:28.670Z,22.39
2017-07-23T11:42:30.106Z,22.59
2017-07-23T11:43:31.535Z,22.56
2017-07-23T11:44:32.976Z,22.75
2017-07-23T11:45:34.404Z,22.47
2017-07-23T11:46:35.838Z,22.67
2017-07-23T11:47:37.282Z,22.62
2017-07-23T11:48:38.721Z,22.57
2017-07-23T11:49:40.163Z,22.78
2017-07-23T11:50:41.599Z,23.05
2017-07-23T11:51:43.032Z,23.04
2017-07-23T11:52:44.474Z,23.11
2017-07-23T11:53:45.902Z,23.11
2017-07-23T11:54:47.343Z,23.12
2017-07-23T11:55:48.781Z,23.20
2017-07-23T11:56:50.216Z,23.26
2017-07-23T11:57:51.656Z,23.64
2017-07-23T11:58:53.084Z,23.98
2017-07-23T11:59:54.518Z,23.86
2017-07-23T12:00:55.957Z,24.10
2017-07-23T12:01:57.384Z,24.02
2017-07-23T12:02:58.823Z,23.83
2017-07-23T12:04:00.254Z,23.85
2017-07-23T12:05:01.688Z,23.82
2017-07-23T12:06:03.124Z,24.04
2017-07-23T12:07:04.559Z,24.63
2017-07-23T12:08:05.995Z,25.42
2017-07-23T12:09:07.439Z,25.24
2017-07-23T12:10:08.874Z,25.64
2017-07-23T12:11:10.306Z,25.19
2017-07-23T12:12:11.750Z,24.97
2017-07-23T12:13:13.795Z,24.53
2017-07-23T12:14:15.224Z,24.71
2017-07-23T12:15:16.657Z,24.49
2017-07-23T12:16:18.091Z,24.32
2017-07-23T12:17:19.526Z,24.04
2017-07-23T12:18:20.952Z,23.75
2017-07-23T12:19:22.396Z,23.67
2017-07-23T12:20:23.823Z,23.57
2017-07-23T12:21:25.273Z,24.01
2017-07-23T12:22:26.706Z,23.75
2017-07-23T12:23:28.146Z,23.58
2017-07-23T12:24:29.574Z,23.42
2017-07-23T12:25:31.014Z,23.20
2017-07-23T12:26:32.460Z,23.29
2017-07-23T12:27:33.887Z,22.84
2017-07-23T12:28:35.323Z,22.75
2017-07-23T12:29:36.755Z,22.89
2017-07-23T12:30:38.191Z,22.62
2017-07-23T12:31:39.625Z,22.49
2017-07-23T12:32:41.058Z,22.53
2017-07-23T12:33:42.499Z,22.31
2017-07-23T12:34:43.939Z,22.13
2017-07-23T12:35:45.374Z,22.17
2017-07-23T12:36:46.809Z,22.16
2017-07-23T12:37:48.247Z,22.16
2017-07-23T12:38:50.340Z,22.02
2017-07-23T12:39:51.773Z,21.91
2017-07-23T12:40:53.205Z,22.17
2017-07-23T12:41:54.641Z,22.07
2017-07-23T12:42:56.073Z,22.13
2017-07-23T12:43:57.508Z,22.32
2017-07-23T12:44:58.948Z,22.49
2017-07-23T12:46:00.381Z,22.92
2017-07-23T12:47:01.815Z,23.19
2017-07-23T12:48:03.243Z,23.45
2017-07-23T12:49:04.700Z,23.71
2017-07-23T12:50:06.113Z,23.47
2017-07-23T12:51:07.552Z,23.68
2017-07-23T12:52:08.998Z,24.01
2017-07-23T12:53:10.432Z,23.83
2017-07-23T12:54:11.899Z,24.13
2017-07-23T12:55:13.314Z,24.16
2017-07-23T12:56:14.745Z,24.27
2017-07-23T12:57:16.179Z,24.27
2017-07-23T12:58:17.618Z,24.26
2017-07-23T12:59:19.043Z,24.67
2017-07-23T13:00:20.475Z,24.98
2017-07-23T13:01:21.903Z,24.97
2017-07-23T13:02:23.334Z,24.98
2017-07-23T13:03:24.772Z,24.49
2017-07-23T13:04:26.202Z,24.20
2017-07-23T13:05:27.633Z,24.13
2017-07-23T13:06:29.063Z,23.83
2017-07-23T13:07:30.503Z,23.76
2017-07-23T13:08:31.941Z,23.49
2017-07-23T13:09:33.371Z,23.40
2017-07-23T13:10:34.806Z,22.89